Dati Storici

Data ora Umidita' aria (%) Temperatura aria (°C) Rad globale (W/m²) Gonioanemometro (°) Tacoanemometro (m/s) Pioggia (mm)
25-10-2012 03:30 87.1 % 9.737 0.362 345.214 1.178 0
25-10-2012 03:20 87.2 % 9.973 0.465 28.126 1.154 0
25-10-2012 03:10 87.6 % 10.221 0.331 15.111 0.628 0
25-10-2012 03:00 88.7 % 10.41 0.485 25.899 0.814 0
25-10-2012 02:50 91.5 % 10.327 0.806 12.99 0.407 0
25-10-2012 02:40 92.4 % 10.042 1.063 334.397 0.421 0
25-10-2012 02:30 92.4 % 9.97 1.075 43.249 0.296 0
25-10-2012 02:20 92.5 % 10.079 1.024 347.979 0.131 0
25-10-2012 02:10 92.9 % 10.323 1.268 16.188 0.445 0
25-10-2012 02:00 92.9 % 10.404 1.255 1.187 0.592 0
25-10-2012 01:50 92.7 % 10.455 1.075 4.422 0.268 0
25-10-2012 01:40 92.9 % 10.71 1.332 0.658 0.192 0
25-10-2012 01:30 93 % 10.919 1.383 11.647 0.458 0
25-10-2012 01:20 93.1 % 11.064 1.447 47.059 0.466 0
25-10-2012 01:10 93.1 % 11.214 1.588 15.191 0.735 0
25-10-2012 01:00 92.9 % 11.178 1.421 39.887 0.518 0
25-10-2012 00:50 92.9 % 11.21 1.524 40 0.263 0
25-10-2012 00:40 92.8 % 11.237 1.537 1.998 -0.009 0
25-10-2012 00:30 92.4 % 11.202 1.281 342.131 -0.01 0
25-10-2012 00:20 92.7 % 11.453 1.281 206.892 -0.01 0

I dati sono presentati in modo automatico a scopo informativo. In seguito a verifica i dati possono subire modifiche o essere invalidati e non riportati negli archivi definitivi.